東京ヘリポートの過去48時間の天気

東京ヘリポート (Tokyo (Hel))

現在時刻: 9/23 09:11 JST (9/23 00:11 UTC) 以下の時間は現地時間です。

過去48時間のMETAR気象情報
時間 風向 風速(m/s) 視程 気温(℃) 湿度(%) 気圧(hPa) 天気現象
23 08:30 南西 2 10km以上 28 70 1012
22 16:00 6 10km以上 27 84 1009
22 15:00 7 10km以上 28 79 1009
22 14:00 6 10km以上 28 79 1009
22 13:00 5 10km以上 28 79 1009
22 12:00 南東 3 10km以上 25 83 1010 周辺でしゅう雨
22 11:00 東南東 2 10km以上 24 83 1011
22 10:00 南東 2 10km以上 24 83 1012
22 09:00 不定 1 10km以上 23 89 1012
22 08:30 不定 1 10km以上 22 88 1012
21 16:00 東南東 5 10km以上 26 65 1014
21 15:00 南東 4 10km以上 27 62 1014
21 14:00 南東 3 10km以上 27 58 1014
21 13:00 南南東 3 10km以上 26 61 1015
21 12:00 3 10km以上 26 58 1015
21 11:00 東北東 2 10km以上 25 65 1016
21 10:00 北北東 3 10km以上 25 61 1017
RJTI 222330Z 23003KT 170V270 9999 FEW020 SCT130 28/22 Q1012
RJTI 220700Z 19011KT 150V220 9999 FEW025 SCT180 27/24 Q1009
RJTI 220600Z 18013KT 9999 FEW025 SCT/// 28/24 Q1009
RJTI 220500Z 19012KT 160V220 9999 FEW015 SCT025 BKN/// 28/24 Q1009
RJTI 220400Z 19009KT 150V230 9999 FEW015 SCT025 BKN180 28/24 Q1009
RJTI 220300Z 13006KT 9999 VCSH FEW012 SCT020 BKN030 25/22 Q1010
RJTI 220200Z 11004KT 070V160 9999 FEW010 SCT015 BKN/// 24/21 Q1011
RJTI 220100Z 14004KT 9999 FEW008 SCT015 BKN/// 24/21 Q1012
RJTI 220000Z VRB02KT 9999 FEW008 BKN015 BKN020 23/21 Q1012
RJTI 212330Z VRB02KT 9999 FEW008 SCT012 BKN020 22/20 Q1012
RJTI 210700Z 12010KT 9999 FEW030 SCT045 26/19 Q1014
RJTI 210600Z 14008KT 9999 FEW030 SCT040 27/19 Q1014
RJTI 210500Z 14006KT 9999 FEW030 SCT050 27/18 Q1014
RJTI 210400Z 15006KT 9999 FEW030 SCT040 26/18 Q1015
RJTI 210300Z 10005KT 070V130 9999 FEW030 SCT040 26/17 Q1015
RJTI 210200Z 07004KT 360V120 9999 FEW030 SCT040 25/18 Q1016
RJTI 210100Z 02005KT 320V080 9999 SCT030 25/17 Q1017